createdAt,value
2023-05-14T00:01:43.951Z,95036.22
2023-05-14T00:04:11.916Z,95024.16
2023-05-14T00:06:41.220Z,95029.41
2023-05-14T00:09:09.164Z,95035.44
2023-05-14T00:11:37.285Z,95033.03
2023-05-14T00:14:05.356Z,95029.28
2023-05-14T00:16:33.372Z,95030.75
2023-05-14T00:19:01.419Z,95027.72
2023-05-14T00:21:29.540Z,95025.66
2023-05-14T00:23:58.876Z,95019.47
2023-05-14T00:26:26.821Z,95009.03
2023-05-14T00:28:54.708Z,95009.50
2023-05-14T00:31:22.839Z,95014.16
2023-05-14T00:33:50.812Z,95005.38
2023-05-14T00:36:18.787Z,95012.88
2023-05-14T00:38:46.802Z,95006.38
2023-05-14T00:41:16.402Z,95003.97
2023-05-14T00:43:44.300Z,95000.81
2023-05-14T00:46:13.220Z,95000.81
2023-05-14T00:48:41.855Z,94994.44
2023-05-14T00:51:09.892Z,94993.44
2023-05-14T00:53:38.216Z,94999.22
2023-05-14T00:56:07.034Z,94989.88
2023-05-14T00:58:36.396Z,94984.63
2023-05-14T01:01:04.475Z,94988.28
2023-05-14T01:03:33.462Z,94984.63
2023-05-14T01:06:10.578Z,94981.00
2023-05-14T01:08:47.753Z,94973.50
2023-05-14T01:11:21.512Z,94971.28
2023-05-14T01:14:00.500Z,94984.34
2023-05-14T01:16:29.540Z,94971.59
2023-05-14T01:18:59.132Z,94970.88
2023-05-14T01:21:37.896Z,94968.84
2023-05-14T01:24:06.590Z,94971.47
2023-05-14T01:26:35.045Z,94961.00
2023-05-14T01:29:11.545Z,94967.34
2023-05-14T01:31:41.883Z,94962.91
2023-05-14T01:34:11.057Z,94967.91
2023-05-14T01:36:42.205Z,94963.69
2023-05-14T01:39:11.562Z,94972.59
2023-05-14T01:41:40.418Z,94968.94
2023-05-14T01:44:10.487Z,94961.09
2023-05-14T01:46:39.025Z,94958.47
2023-05-14T01:49:06.966Z,94964.50
2023-05-14T01:51:35.116Z,94959.72
2023-05-14T01:54:05.337Z,94958.94
2023-05-14T01:56:33.331Z,94966.22
2023-05-14T01:59:01.271Z,94962.59
2023-05-14T02:01:29.196Z,94958.94
2023-05-14T02:03:57.269Z,94967.34
2023-05-14T02:06:25.297Z,94958.47
2023-05-14T02:08:53.273Z,94961.63
2023-05-14T02:11:22.632Z,94959.56
2023-05-14T02:13:50.642Z,94960.59
2023-05-14T02:16:19.333Z,94966.41
2023-05-14T02:18:47.386Z,94964.81
2023-05-14T02:21:15.319Z,94967.97
2023-05-14T02:23:43.610Z,94961.94
2023-05-14T02:26:13.418Z,94967.97
2023-05-14T02:28:42.709Z,94965.59
2023-05-14T02:31:10.755Z,94960.59
2023-05-14T02:33:38.814Z,94961.63
2023-05-14T02:36:07.193Z,94956.16
2023-05-14T02:38:35.237Z,94952.19
2023-05-14T02:41:03.253Z,94955.28
2023-05-14T02:43:31.186Z,94949.25
2023-05-14T02:46:00.585Z,94948.00
2023-05-14T02:48:28.531Z,94939.59
2023-05-14T02:50:56.447Z,94947.91
2023-05-14T02:53:24.342Z,94945.75
2023-05-14T02:55:52.336Z,94947.34
2023-05-14T02:58:20.319Z,94941.66
2023-05-14T03:00:54.282Z,94946.88
2023-05-14T03:03:24.116Z,94941.66
2023-05-14T03:05:52.632Z,94934.16
2023-05-14T03:08:20.634Z,94942.25
2023-05-14T03:10:48.573Z,94939.41
2023-05-14T03:13:19.950Z,94935.75
2023-05-14T03:15:48.672Z,94935.75
2023-05-14T03:18:16.720Z,94937.34
2023-05-14T03:20:46.034Z,94937.19
2023-05-14T03:23:14.918Z,94936.19
2023-05-14T03:25:42.868Z,94937.47
2023-05-14T03:28:10.908Z,94932.69
2023-05-14T03:30:38.849Z,94938.72
2023-05-14T03:33:07.071Z,94935.88
2023-05-14T03:35:35.051Z,94934.94
2023-05-14T03:38:04.386Z,94931.41
2023-05-14T03:40:32.480Z,94931.47
2023-05-14T03:43:00.487Z,94922.34
2023-05-14T03:45:30.441Z,94931.00
2023-05-14T03:48:00.188Z,94927.19
2023-05-14T03:50:28.319Z,94922.44
2023-05-14T03:52:56.366Z,94927.19
2023-05-14T03:55:25.840Z,94928.84
2023-05-14T03:57:53.814Z,94929.41
2023-05-14T04:00:22.152Z,94928.38
2023-05-14T04:02:52.661Z,94925.22
2023-05-14T04:05:20.908Z,94928.78
2023-05-14T04:07:49.165Z,94932.22
2023-05-14T04:10:17.058Z,94933.25
2023-05-14T04:12:46.358Z,94937.47
2023-05-14T04:15:14.432Z,94927.66
2023-05-14T04:17:43.953Z,94926.72
2023-05-14T04:20:13.966Z,94929.41
2023-05-14T04:22:41.939Z,94924.19
2023-05-14T04:25:10.305Z,94926.56
2023-05-14T04:27:38.300Z,94923.69
2023-05-14T04:30:11.369Z,94925.75
2023-05-14T04:32:39.364Z,94932.59
2023-05-14T04:35:09.470Z,94929.41
2023-05-14T04:37:37.472Z,94934.56
2023-05-14T04:40:06.706Z,94937.19
2023-05-14T04:42:34.909Z,94938.75
2023-05-14T04:45:05.183Z,94938.84
2023-05-14T04:47:34.637Z,94943.03
2023-05-14T04:50:02.852Z,94937.81
2023-05-14T04:52:30.801Z,94938.28
2023-05-14T04:54:58.729Z,94935.13
2023-05-14T04:57:26.622Z,94938.28
2023-05-14T04:59:54.531Z,94936.88
2023-05-14T05:02:22.472Z,94948.47
2023-05-14T05:04:51.824Z,94950.06
2023-05-14T05:07:19.820Z,94946.41
2023-05-14T05:09:47.729Z,94946.41
2023-05-14T05:12:15.772Z,94945.31
2023-05-14T05:14:43.669Z,94942.88
2023-05-14T05:17:11.788Z,94937.91
2023-05-14T05:19:43.679Z,94941.47
2023-05-14T05:22:13.999Z,94953.50
2023-05-14T05:24:41.985Z,94944.63
2023-05-14T05:27:09.968Z,94940.44
2023-05-14T05:29:38.323Z,94940.66
2023-05-14T05:32:07.278Z,94945.75
2023-05-14T05:34:35.827Z,94948.00
2023-05-14T05:37:03.870Z,94954.34
2023-05-14T05:39:35.080Z,94944.66
2023-05-14T05:42:03.656Z,94949.09
2023-05-14T05:44:31.607Z,94943.88
2023-05-14T05:46:59.679Z,94947.53
2023-05-14T05:49:27.657Z,94943.56
2023-05-14T05:51:55.641Z,94949.66
2023-05-14T05:54:24.731Z,94955.53
2023-05-14T05:56:54.246Z,94949.25
2023-05-14T05:59:22.200Z,94956.13
2023-05-14T06:01:50.189Z,94956.66
2023-05-14T06:04:18.159Z,94953.31
2023-05-14T06:06:46.069Z,94953.09
2023-05-14T06:09:14.298Z,94954.19
2023-05-14T06:11:42.265Z,94952.13
2023-05-14T06:14:11.541Z,94953.22
2023-05-14T06:16:39.491Z,94952.44
2023-05-14T06:19:08.462Z,94952.44
2023-05-14T06:21:36.599Z,94955.31
2023-05-14T06:24:04.810Z,94952.44
2023-05-14T06:26:32.854Z,94944.94
2023-05-14T06:29:01.134Z,94950.72
2023-05-14T06:31:30.644Z,94949.75
2023-05-14T06:33:58.608Z,94945.88
2023-05-14T06:36:26.552Z,94955.63
2023-05-14T06:38:54.518Z,94947.84
2023-05-14T06:41:22.722Z,94945.31
2023-05-14T06:43:50.670Z,94953.16
2023-05-14T06:46:18.641Z,94950.00
2023-05-14T06:48:48.049Z,94946.25
2023-05-14T06:51:16.025Z,94947.84
2023-05-14T06:53:44.007Z,94950.22
2023-05-14T06:56:12.985Z,94951.56
2023-05-14T06:58:40.977Z,94947.38
2023-05-14T07:01:09.181Z,94947.38
2023-05-14T07:03:37.189Z,94949.75
2023-05-14T07:06:07.622Z,94949.56
2023-05-14T07:08:36.146Z,94951.94
2023-05-14T07:11:04.252Z,94944.03
2023-05-14T07:13:32.193Z,94942.31
2023-05-14T07:16:00.595Z,94940.75
2023-05-14T07:18:28.841Z,94951.97
2023-05-14T07:20:56.881Z,94948.97
2023-05-14T07:23:26.189Z,94940.91
2023-05-14T07:25:54.187Z,94943.78
2023-05-14T07:28:22.128Z,94944.03
2023-05-14T07:30:50.152Z,94951.47
2023-05-14T07:33:18.044Z,94941.47
2023-05-14T07:35:46.215Z,94946.72
2023-05-14T07:38:14.305Z,94944.03
2023-05-14T07:40:43.796Z,94945.13
2023-05-14T07:43:11.960Z,94950.38
2023-05-14T07:45:40.257Z,94950.06
2023-05-14T07:48:08.640Z,94938.66
2023-05-14T07:50:36.764Z,94939.84
2023-05-14T07:53:04.749Z,94945.00
2023-05-14T07:55:32.912Z,94945.56
2023-05-14T07:58:02.153Z,94935.31
2023-05-14T08:00:30.244Z,94940.63
2023-05-14T08:02:58.322Z,94938.47
2023-05-14T08:05:26.668Z,94936.41
2023-05-14T08:07:54.572Z,94937.50
2023-05-14T08:10:22.934Z,94929.22
2023-05-14T08:12:51.143Z,94921.59
2023-05-14T08:15:20.498Z,94928.28
2023-05-14T08:17:48.526Z,94931.31
2023-05-14T08:20:16.604Z,94930.09
2023-05-14T08:22:44.568Z,94926.13
2023-05-14T08:25:12.589Z,94929.22
2023-05-14T08:27:41.164Z,94925.03
2023-05-14T08:30:09.793Z,94919.44
2023-05-14T08:32:39.486Z,94925.41
2023-05-14T08:35:08.319Z,94916.28
2023-05-14T08:37:36.333Z,94928.78
2023-05-14T08:40:04.630Z,94914.78
2023-05-14T08:42:33.400Z,94913.31
2023-05-14T08:45:03.262Z,94915.00
2023-05-14T08:47:32.433Z,94907.13
2023-05-14T08:50:05.149Z,94911.44
2023-05-14T08:52:34.004Z,94909.56
2023-05-14T08:55:05.570Z,94910.66
2023-05-14T08:57:34.489Z,94910.44
2023-05-14T09:00:03.066Z,94906.56
2023-05-14T09:02:32.535Z,94910.06
2023-05-14T09:05:02.200Z,94915.09
2023-05-14T09:07:31.757Z,94906.16
2023-05-14T09:10:00.577Z,94915.69
2023-05-14T09:12:28.549Z,94914.16
2023-05-14T09:14:56.512Z,94907.38
2023-05-14T09:17:27.249Z,94910.44
2023-05-14T09:19:55.482Z,94911.44
2023-05-14T09:22:23.428Z,94912.44
2023-05-14T09:25:05.801Z,94913.50
2023-05-14T09:27:34.345Z,94906.16
2023-05-14T09:30:10.787Z,94907.25
2023-05-14T09:32:40.191Z,94911.63
2023-05-14T09:35:17.815Z,94909.09
2023-05-14T09:37:47.903Z,94904.81
2023-05-14T09:40:19.271Z,94892.06
2023-05-14T09:42:48.223Z,94906.06
2023-05-14T09:45:16.882Z,94894.56
2023-05-14T09:47:45.446Z,94900.34
2023-05-14T09:50:13.941Z,94899.28
2023-05-14T09:52:42.040Z,94906.31
2023-05-14T09:55:10.564Z,94894.94
2023-05-14T09:57:40.118Z,94898.66
2023-05-14T10:00:10.316Z,94902.34
2023-05-14T10:02:41.188Z,94895.63
2023-05-14T10:05:10.433Z,94887.75
2023-05-14T10:07:42.617Z,94893.00
2023-05-14T10:10:16.391Z,94891.50
2023-05-14T10:12:52.491Z,94888.41
2023-05-14T10:15:24.326Z,94888.97
2023-05-14T10:17:57.938Z,94888.41
2023-05-14T10:20:28.033Z,94883.34
2023-05-14T10:22:56.517Z,94883.44
2023-05-14T10:25:24.691Z,94890.75
2023-05-14T10:27:54.642Z,94892.84
2023-05-14T10:30:24.078Z,94890.25
2023-05-14T10:33:07.756Z,94877.09
2023-05-14T10:35:56.596Z,94879.66
2023-05-14T10:38:27.962Z,94876.06
2023-05-14T10:40:58.922Z,94884.03
2023-05-14T10:43:30.694Z,94879.91
2023-05-14T10:45:59.535Z,94882.66
2023-05-14T10:48:27.764Z,94881.13
2023-05-14T10:50:57.768Z,94876.38
2023-05-14T10:53:34.560Z,94870.59
2023-05-14T10:56:07.580Z,94868.97
2023-05-14T10:58:39.130Z,94867.22
2023-05-14T11:01:08.382Z,94863.81
2023-05-14T11:03:42.103Z,94859.06
2023-05-14T11:06:11.696Z,94861.69
2023-05-14T11:08:40.522Z,94858.25
2023-05-14T11:11:09.785Z,94855.91
2023-05-14T11:13:39.294Z,94849.53
2023-05-14T11:18:40.764Z,94862.72
2023-05-14T11:21:08.836Z,94845.38
2023-05-14T11:23:36.809Z,94837.94
2023-05-14T11:26:04.825Z,94835.09
2023-05-14T11:28:32.872Z,94830.31
2023-05-14T11:31:02.243Z,94841.13
2023-05-14T11:33:30.613Z,94833.47
2023-05-14T11:35:58.528Z,94831.84
2023-05-14T11:38:26.482Z,94828.13
2023-05-14T11:40:56.314Z,94827.66
2023-05-14T11:43:24.866Z,94815.84
2023-05-14T11:45:53.852Z,94818.44
2023-05-14T11:48:24.110Z,94817.34
2023-05-14T11:50:53.711Z,94809.88
2023-05-14T11:53:26.445Z,94814.53
2023-05-14T11:55:55.356Z,94799.69
2023-05-14T11:58:23.390Z,94802.84
2023-05-14T12:00:51.761Z,94806.09
2023-05-14T12:03:25.364Z,94806.59
2023-05-14T12:05:59.618Z,94797.88
2023-05-14T12:08:29.382Z,94803.44
2023-05-14T12:10:59.826Z,94804.06
2023-05-14T12:13:28.407Z,94800.75
2023-05-14T12:15:58.350Z,94805.81
2023-05-14T12:18:26.967Z,94794.97
2023-05-14T12:20:55.135Z,94792.28
2023-05-14T12:23:28.784Z,94792.69
2023-05-14T12:25:57.154Z,94793.97
2023-05-14T12:28:25.041Z,94784.00
2023-05-14T12:30:57.651Z,94784.59
2023-05-14T12:33:27.323Z,94802.00
2023-05-14T12:35:58.933Z,94791.47
2023-05-14T12:38:29.934Z,94790.91
2023-05-14T12:40:57.824Z,94790.69
2023-05-14T12:43:30.035Z,94782.22
2023-05-14T12:45:58.001Z,94783.22
2023-05-14T12:48:26.192Z,94778.78
2023-05-14T12:50:54.265Z,94778.88
2023-05-14T12:53:22.166Z,94769.94
2023-05-14T12:55:51.548Z,94778.28
2023-05-14T12:58:19.494Z,94771.53
2023-05-14T13:00:47.469Z,94772.00
2023-05-14T13:03:15.510Z,94757.72
2023-05-14T13:05:43.472Z,94766.09
2023-05-14T13:08:11.510Z,94765.19
2023-05-14T13:10:39.441Z,94763.63
2023-05-14T13:13:08.762Z,94763.63
2023-05-14T13:15:37.260Z,94775.78
2023-05-14T13:18:05.842Z,94782.09
2023-05-14T13:20:34.685Z,94776.53
2023-05-14T13:23:02.633Z,94774.13
2023-05-14T13:25:30.561Z,94776.50
2023-05-14T13:27:58.543Z,94761.50
2023-05-14T13:30:27.982Z,94774.16
2023-05-14T13:32:55.936Z,94772.81
2023-05-14T13:35:24.153Z,94767.75
2023-05-14T13:37:52.265Z,94770.97
2023-05-14T13:40:20.188Z,94768.88
2023-05-14T13:42:48.085Z,94762.56
2023-05-14T13:45:16.034Z,94768.94
2023-05-14T13:47:45.483Z,94766.31
2023-05-14T13:50:14.196Z,94765.25
2023-05-14T13:52:42.117Z,94760.53
2023-05-14T13:55:10.604Z,94774.22
2023-05-14T13:57:39.838Z,94760.56
2023-05-14T14:00:09.993Z,94773.75
2023-05-14T14:02:38.039Z,94780.06
2023-05-14T14:05:08.488Z,94768.75
2023-05-14T14:07:36.502Z,94772.94
2023-05-14T14:10:04.934Z,94775.22
2023-05-14T14:12:32.967Z,94763.41
2023-05-14T14:15:01.149Z,94768.97
2023-05-14T14:17:29.127Z,94763.19
2023-05-14T14:19:57.030Z,94761.63
2023-05-14T14:22:28.953Z,94752.16
2023-05-14T14:24:57.416Z,94758.97
2023-05-14T14:27:25.953Z,94756.38
2023-05-14T14:29:54.172Z,94744.75
2023-05-14T14:32:22.115Z,94743.69
2023-05-14T14:34:50.006Z,94744.78
2023-05-14T14:37:17.906Z,94744.78
2023-05-14T14:39:47.470Z,94746.59
2023-05-14T14:42:15.377Z,94753.97
2023-05-14T14:44:43.334Z,94748.47
2023-05-14T14:47:11.285Z,94756.63
2023-05-14T14:49:39.274Z,94745.31
2023-05-14T14:52:07.613Z,94753.22
2023-05-14T14:54:35.614Z,94752.16
2023-05-14T14:57:05.272Z,94755.03
2023-05-14T14:59:33.280Z,94757.94
2023-05-14T15:02:01.238Z,94756.34
2023-05-14T15:04:32.941Z,94759.50
2023-05-14T15:07:01.281Z,94759.50
2023-05-14T15:09:29.231Z,94756.88
2023-05-14T15:11:57.397Z,94762.16
2023-05-14T15:14:26.857Z,94761.09
2023-05-14T15:16:55.062Z,94760.06
2023-05-14T15:19:23.092Z,94766.38
2023-05-14T15:21:51.108Z,94764.25
2023-05-14T15:24:19.180Z,94755.31
2023-05-14T15:26:47.312Z,94760.84
2023-05-14T15:29:15.342Z,94762.16
2023-05-14T15:31:46.176Z,94757.41
2023-05-14T15:34:14.134Z,94772.69
2023-05-14T15:36:42.285Z,94764.78
2023-05-14T15:39:11.679Z,94765.31
2023-05-14T15:41:39.600Z,94769.00
2023-05-14T15:44:07.598Z,94770.03
2023-05-14T15:46:37.990Z,94769.78
2023-05-14T15:49:07.427Z,94775.84
2023-05-14T15:51:35.934Z,94771.63
2023-05-14T15:54:04.130Z,94768.22
2023-05-14T15:56:32.291Z,94769.53
2023-05-14T15:59:00.254Z,94765.84
2023-05-14T16:01:28.166Z,94770.31
2023-05-14T16:03:56.293Z,94768.47
2023-05-14T16:06:26.967Z,94771.09
2023-05-14T16:08:56.125Z,94771.63
2023-05-14T16:11:24.138Z,94773.72
2023-05-14T16:13:52.118Z,94770.50
2023-05-14T16:16:20.824Z,94765.78
2023-05-14T16:18:48.874Z,94768.47
2023-05-14T16:21:16.869Z,94771.56
2023-05-14T16:23:46.314Z,94764.19
2023-05-14T16:26:14.336Z,94768.34
2023-05-14T16:28:42.888Z,94775.19
2023-05-14T16:31:10.786Z,94769.94
2023-05-14T16:33:38.713Z,94770.97
2023-05-14T16:36:07.177Z,94777.28
2023-05-14T16:38:38.535Z,94777.03
2023-05-14T16:41:10.722Z,94778.91
2023-05-14T16:43:38.642Z,94784.72
2023-05-14T16:46:07.120Z,94776.03
2023-05-14T16:48:35.084Z,94781.56
2023-05-14T16:51:02.971Z,94781.56
2023-05-14T16:53:30.996Z,94790.47
2023-05-14T16:55:59.471Z,94782.06
2023-05-14T16:58:28.788Z,94784.72
2023-05-14T17:00:56.766Z,94782.06
2023-05-14T17:03:24.703Z,94794.66
2023-05-14T17:05:52.748Z,94793.59
2023-05-14T17:08:21.016Z,94785.75
2023-05-14T17:10:49.225Z,94786.78
2023-05-14T17:13:17.160Z,94792.81
2023-05-14T17:15:46.516Z,94785.44
2023-05-14T17:18:14.538Z,94782.03
2023-05-14T17:20:42.525Z,94787.28
2023-05-14T17:23:10.630Z,94786.75
2023-05-14T17:25:38.915Z,94793.59
2023-05-14T17:28:06.902Z,94799.44
2023-05-14T17:30:34.834Z,94802.59
2023-05-14T17:33:04.283Z,94802.41
2023-05-14T17:35:35.863Z,94806.91
2023-05-14T17:38:03.903Z,94807.44
2023-05-14T17:40:31.911Z,94811.09
2023-05-14T17:42:59.856Z,94815.31
2023-05-14T17:45:29.486Z,94815.56
2023-05-14T17:48:00.447Z,94813.72
2023-05-14T17:50:29.783Z,94813.19
2023-05-14T17:52:57.775Z,94815.28
2023-05-14T17:55:25.918Z,94815.31
2023-05-14T17:57:54.058Z,94813.72
2023-05-14T18:00:22.132Z,94826.28
2023-05-14T18:02:50.089Z,94818.84
2023-05-14T18:05:20.563Z,94821.44
2023-05-14T18:07:50.100Z,94816.66
2023-05-14T18:10:18.120Z,94818.75
2023-05-14T18:12:46.023Z,94825.59
2023-05-14T18:15:14.061Z,94823.78
2023-05-14T18:17:42.169Z,94823.38
2023-05-14T18:20:10.928Z,94828.34
2023-05-14T18:22:38.854Z,94823.56
2023-05-14T18:25:09.622Z,94834.09
2023-05-14T18:27:44.079Z,94834.69
2023-05-14T18:30:14.494Z,94826.91
2023-05-14T18:32:44.169Z,94839.53
2023-05-14T18:35:12.827Z,94841.53
2023-05-14T18:37:41.252Z,94840.41
2023-05-14T18:40:16.244Z,94843.47
2023-05-14T18:42:45.705Z,94846.88
2023-05-14T18:45:13.645Z,94839.94
2023-05-14T18:47:42.050Z,94846.50
2023-05-14T18:50:10.467Z,94837.03
2023-05-14T18:52:38.512Z,94833.81
2023-05-14T18:55:07.177Z,94846.38
2023-05-14T18:57:37.967Z,94844.81
2023-05-14T19:00:07.016Z,94845.81
2023-05-14T19:02:35.031Z,94850.47
2023-05-14T19:05:03.386Z,94847.47
2023-05-14T19:07:32.272Z,94846.25
2023-05-14T19:10:00.219Z,94851.88
2023-05-14T19:12:28.148Z,94856.34
2023-05-14T19:14:57.403Z,94857.19
2023-05-14T19:17:25.916Z,94867.72
2023-05-14T19:19:55.046Z,94879.84
2023-05-14T19:22:22.992Z,94890.34
2023-05-14T19:24:51.072Z,94887.16
2023-05-14T19:27:19.149Z,94892.91
2023-05-14T19:29:47.108Z,94903.09
2023-05-14T19:32:16.409Z,94898.63
2023-05-14T19:34:44.330Z,94895.47
2023-05-14T19:37:12.268Z,94898.63
2023-05-14T19:39:40.188Z,94899.75
2023-05-14T19:42:08.171Z,94902.91
2023-05-14T19:44:36.148Z,94902.91
2023-05-14T19:47:04.551Z,94900.97
2023-05-14T19:49:33.896Z,94904.22
2023-05-14T19:52:01.819Z,94911.03
2023-05-14T19:54:29.802Z,94904.75
2023-05-14T19:56:57.754Z,94911.34
2023-05-14T19:59:25.865Z,94910.06
2023-05-14T20:01:54.581Z,94920.56
2023-05-14T20:04:22.564Z,94927.91
2023-05-14T20:06:52.640Z,94918.97
2023-05-14T20:09:21.251Z,94921.09
2023-05-14T20:11:49.324Z,94922.16
2023-05-14T20:14:17.233Z,94928.44
2023-05-14T20:16:46.986Z,94932.66
2023-05-14T20:19:15.226Z,94944.19
2023-05-14T20:21:43.207Z,94944.72
2023-05-14T20:24:13.544Z,94946.31
2023-05-14T20:26:41.506Z,94943.16
2023-05-14T20:29:10.976Z,94950.47
2023-05-14T20:31:38.909Z,94948.91
2023-05-14T20:34:06.817Z,94948.41
2023-05-14T20:36:34.741Z,94950.47
2023-05-14T20:39:02.919Z,94946.19
2023-05-14T20:41:32.187Z,94945.91
2023-05-14T20:44:00.129Z,94938.56
2023-05-14T20:46:28.035Z,94952.50
2023-05-14T20:48:56.300Z,94949.38
2023-05-14T20:51:24.569Z,94943.56
2023-05-14T20:53:52.489Z,94948.91
2023-05-14T20:56:20.697Z,94956.81
2023-05-14T20:58:50.037Z,94940.03
2023-05-14T21:01:17.988Z,94942.84
2023-05-14T21:03:46.166Z,94946.75
2023-05-14T21:06:14.275Z,94942.44
2023-05-14T21:08:42.443Z,94940.38
2023-05-14T21:11:10.329Z,94943.03
2023-05-14T21:13:38.215Z,94935.19
2023-05-14T21:16:08.316Z,94937.59
2023-05-14T21:18:36.642Z,94931.53
2023-05-14T21:21:05.041Z,94917.09
2023-05-14T21:23:33.073Z,94922.91
2023-05-14T21:26:01.077Z,94921.44
2023-05-14T21:28:29.040Z,94917.75
2023-05-14T21:30:56.992Z,94918.78
2023-05-14T21:33:26.332Z,94921.81
2023-05-14T21:35:54.319Z,94916.50
2023-05-14T21:38:22.471Z,94914.59
2023-05-14T21:40:50.452Z,94916.50
2023-05-14T21:43:18.440Z,94913.31
2023-05-14T21:45:47.444Z,94911.75
2023-05-14T21:48:15.666Z,94911.78
2023-05-14T21:50:45.157Z,94914.47
2023-05-14T21:53:13.077Z,94921.34
2023-05-14T21:55:41.200Z,94910.84
2023-05-14T21:58:09.475Z,94916.97
2023-05-14T22:00:37.428Z,94924.28
2023-05-14T22:03:05.417Z,94922.22
2023-05-14T22:05:33.424Z,94923.81
2023-05-14T22:08:02.731Z,94932.09
2023-05-14T22:10:31.669Z,94925.03
2023-05-14T22:12:59.596Z,94930.03
2023-05-14T22:15:27.717Z,94924.78
2023-05-14T22:17:55.868Z,94924.47
2023-05-14T22:20:24.060Z,94934.06
2023-05-14T22:22:52.136Z,94927.03
2023-05-14T22:25:21.633Z,94924.03
2023-05-14T22:27:49.540Z,94923.84
2023-05-14T22:30:17.464Z,94908.63
2023-05-14T22:32:45.430Z,94921.97
2023-05-14T22:35:13.380Z,94916.53
2023-05-14T22:37:41.335Z,94917.03
2023-05-14T22:40:10.140Z,94919.59
2023-05-14T22:42:39.492Z,94917.22
2023-05-14T22:45:08.639Z,94918.31
2023-05-14T22:47:36.612Z,94913.72
2023-05-14T22:50:07.411Z,94913.56
2023-05-14T22:52:35.418Z,94910.88
2023-05-14T22:55:03.454Z,94914.06
2023-05-14T22:57:31.367Z,94916.13
2023-05-14T23:00:00.678Z,94917.53
2023-05-14T23:02:28.860Z,94912.91
2023-05-14T23:04:56.929Z,94900.25
2023-05-14T23:07:24.932Z,94911.03
2023-05-14T23:09:52.848Z,94912.00
2023-05-14T23:12:20.800Z,94906.88
2023-05-14T23:14:48.673Z,94910.28
2023-05-14T23:17:18.243Z,94904.81
2023-05-14T23:19:46.199Z,94903.22
2023-05-14T23:22:14.183Z,94904.81
2023-05-14T23:24:42.095Z,94902.75
2023-05-14T23:27:10.141Z,94898.63
2023-05-14T23:29:38.588Z,94894.97
2023-05-14T23:32:07.415Z,94895.53
2023-05-14T23:34:36.738Z,94884.00
2023-05-14T23:37:04.738Z,94887.66
2023-05-14T23:39:32.980Z,94884.00
2023-05-14T23:42:00.924Z,94887.66
2023-05-14T23:44:28.881Z,94891.31
2023-05-14T23:46:56.962Z,94882.44
2023-05-14T23:49:24.873Z,94882.44
2023-05-14T23:51:54.217Z,94889.75
2023-05-14T23:54:22.236Z,94890.22
2023-05-14T23:56:50.160Z,94879.75
2023-05-14T23:59:18.215Z,94882.75
